Time;durP1;ratioP1;P1;durP2;ratioP2;P2;SDS_P1;SDS_P2;PMS_P1;PMS_P2;Temp;Humidity;BMP_temperature;BMP_pressure;BME280_temperature;BME280_humidity;BME280_pressure;Samples;Min_cycle;Max_cycle;Signal;HPM_P1;HPM_P2
2023/07/06 00:02:13;;;;;;;3.80;1.20;;;12.90;99.90;;;11.73;100.00;97855.72;5045603;28;20094;-71
2023/07/06 00:04:40;;;;;;;2.83;1.20;;;12.80;99.90;;;11.69;100.00;97850.72;5043412;28;20449;-71
2023/07/06 00:07:07;;;;;;;2.65;1.27;;;12.80;99.90;;;11.66;100.00;97843.06;5046161;28;20129;-70
2023/07/06 00:09:35;;;;;;;5.22;1.70;;;12.90;99.90;;;11.48;100.00;97855.09;5039489;28;20114;-70
2023/07/06 00:12:03;;;;;;;6.20;1.55;;;12.70;99.90;;;11.59;100.00;97849.44;5039454;28;20041;-70
2023/07/06 00:14:30;;;;;;;7.93;2.28;;;12.60;99.90;;;11.45;100.00;97853.47;5044084;28;20122;-71
2023/07/06 00:17:14;;;;;;;3.70;1.50;;;12.50;99.90;;;11.55;100.00;97861.72;5044584;28;20055;-72
2023/07/06 00:19:42;;;;;;;4.50;1.77;;;12.30;99.90;;;11.50;100.00;97866.28;5043580;28;20045;-73
2023/07/06 00:22:13;;;;;;;3.95;1.45;;;12.40;99.90;;;11.34;100.00;97867.81;5043932;28;20132;-72
2023/07/06 00:24:41;;;;;;;7.55;1.90;;;12.30;99.90;;;11.29;100.00;97874.03;5026026;28;20115;-73
2023/07/06 00:27:09;;;;;;;13.20;2.15;;;12.20;99.90;;;11.32;100.00;97880.88;5044601;28;20045;-73
2023/07/06 00:29:46;;;;;;;4.53;1.50;;;12.20;99.90;;;11.28;100.00;97877.53;5039056;28;20049;-72
2023/07/06 00:32:25;;;;;;;5.15;1.80;;;12.10;99.90;;;11.30;100.00;97877.47;5045317;28;20044;-73
2023/07/06 00:34:57;;;;;;;6.78;2.20;;;12.00;99.90;;;11.17;100.00;97881.47;5042259;28;20462;-73
2023/07/06 00:37:24;;;;;;;4.75;2.00;;;12.00;99.90;;;10.96;100.00;97891.81;5042578;28;20443;-73
2023/07/06 00:39:51;;;;;;;7.57;2.22;;;11.90;99.90;;;10.87;100.00;97899.97;5042320;28;20049;-72
2023/07/06 00:42:22;;;;;;;6.82;2.08;;;11.90;99.90;;;10.85;100.00;97899.16;5041195;28;20056;-73
2023/07/06 00:44:57;;;;;;;6.53;1.60;;;11.90;99.90;;;11.05;100.00;97908.78;5025390;28;20408;-72
2023/07/06 00:47:45;;;;;;;5.40;1.65;;;12.00;99.90;;;10.95;100.00;97897.06;5043555;28;20084;-72
2023/07/06 00:50:20;;;;;;;4.13;1.75;;;12.10;99.90;;;10.94;100.00;97898.81;5042063;28;20521;-72
2023/07/06 00:52:52;;;;;;;5.90;1.60;;;12.10;99.90;;;10.96;100.00;97899.59;5041204;28;20071;-71
2023/07/06 00:55:27;;;;;;;5.75;1.50;;;12.10;99.90;;;11.02;100.00;97899.38;5040044;28;20049;-70
2023/07/06 00:58:08;;;;;;;6.37;2.00;;;12.00;99.90;;;11.09;100.00;97894.78;5035511;28;20045;-70
2023/07/06 01:00:37;;;;;;;3.00;1.50;;;11.90;99.90;;;10.99;100.00;97896.03;5041719;28;20403;-70
2023/07/06 01:03:07;;;;;;;5.40;1.75;;;11.90;99.90;;;11.04;100.00;97901.91;5039425;28;20146;-70
2023/07/06 01:05:39;;;;;;;6.10;1.77;;;11.90;99.90;;;11.13;100.00;97895.50;5040357;28;20056;-70
2023/07/06 01:08:13;;;;;;;3.65;1.75;;;11.80;99.90;;;10.97;100.00;97897.84;5044810;28;20049;-70
2023/07/06 01:10:41;;;;;;;3.25;1.60;;;11.80;99.90;;;11.00;100.00;97895.97;5041360;28;20128;-73
2023/07/06 01:13:08;;;;;;;4.03;1.95;;;11.80;99.90;;;11.03;100.00;97898.44;5042889;28;20510;-70
2023/07/06 01:15:46;;;;;;;3.72;1.73;;;11.70;99.90;;;10.99;100.00;97901.22;5041851;28;20053;-70
2023/07/06 01:18:49;;;;;;;2.90;1.50;;;11.70;99.90;;;10.94;100.00;97891.03;5039594;28;20068;-71
2023/07/06 01:21:31;;;;;;;3.73;1.40;;;11.70;99.90;;;10.73;100.00;97890.09;5042182;28;20558;-73
2023/07/06 01:24:45;;;;;;;6.63;2.33;;;11.60;99.90;;;10.75;100.00;97892.66;5027058;28;20489;-71
2023/07/06 01:28:07;;;;;;;3.88;1.50;;;11.50;99.90;;;10.78;100.00;97897.72;5043097;28;20072;-70
2023/07/06 01:30:49;;;;;;;7.63;2.35;;;11.40;99.90;;;10.62;100.00;97900.88;4993297;28;20058;-70
2023/07/06 01:33:25;;;;;;;4.10;1.80;;;11.40;99.90;;;10.60;100.00;97896.66;5044398;28;20052;-70
2023/07/06 01:36:21;;;;;;;4.53;1.90;;;11.40;99.90;;;10.53;100.00;97913.38;5042719;28;20128;-70
2023/07/06 01:38:51;;;;;;;5.53;1.77;;;11.30;99.90;;;10.30;100.00;97906.44;5037930;28;20485;-70
2023/07/06 01:41:27;;;;;;;5.60;1.90;;;11.30;99.90;;;10.34;100.00;97921.00;5057986;28;20152;-70
2023/07/06 01:43:54;;;;;;;4.53;1.80;;;11.20;99.90;;;10.35;100.00;97918.31;5040692;28;20130;-71
2023/07/06 01:46:22;;;;;;;3.42;1.80;;;11.20;99.90;;;10.38;100.00;97915.63;5043419;28;20529;-71
2023/07/06 01:48:49;;;;;;;4.25;2.15;;;11.10;99.90;;;10.25;100.00;97922.13;5041074;28;20417;-70
2023/07/06 01:51:34;;;;;;;9.57;1.98;;;11.10;99.90;;;10.30;100.00;97914.22;5040531;28;20061;-70
2023/07/06 01:54:09;;;;;;;3.65;1.80;;;11.00;99.90;;;10.35;100.00;97915.72;5053381;28;20045;-71
2023/07/06 01:56:59;;;;;;;4.78;1.80;;;11.10;99.90;;;10.32;100.00;97922.78;5043798;28;20555;-71
2023/07/06 01:59:29;;;;;;;4.75;2.13;;;11.20;99.90;;;10.38;100.00;97922.56;5040242;28;20339;-71
2023/07/06 02:02:01;;;;;;;5.78;1.90;;;11.30;99.90;;;10.25;100.00;97919.53;5042650;28;20045;-71
2023/07/06 02:04:31;;;;;;;4.28;1.90;;;11.30;99.90;;;10.33;100.00;97925.34;5048651;28;20158;-71
2023/07/06 02:07:02;;;;;;;4.68;2.05;;;11.20;99.90;;;10.29;100.00;97923.75;5045791;28;20076;-71
2023/07/06 02:09:30;;;;;;;6.03;2.03;;;11.10;99.90;;;10.23;100.00;97926.53;5046530;28;20052;-71
2023/07/06 02:11:57;;;;;;;5.55;2.08;;;11.00;99.90;;;10.33;100.00;97925.34;5048923;28;20045;-71
2023/07/06 02:14:25;;;;;;;4.30;1.52;;;11.00;99.90;;;10.32;100.00;97921.03;5047850;28;20048;-71
2023/07/06 02:16:52;;;;;;;5.47;2.20;;;11.10;99.90;;;10.24;100.00;97925.59;5044203;28;20041;-72
2023/07/06 02:19:23;;;;;;;5.97;2.00;;;11.10;99.90;;;10.16;100.00;97919.88;5045048;28;20110;-71
2023/07/06 02:21:51;;;;;;;6.45;1.88;;;11.10;99.90;;;10.08;100.00;97919.28;5047552;28;20051;-71
2023/07/06 02:24:20;;;;;;;5.53;1.63;;;11.10;99.90;;;10.18;100.00;97920.66;5044654;28;20045;-71
2023/07/06 02:26:49;;;;;;;5.20;2.20;;;11.00;99.90;;;10.04;100.00;97929.75;5049639;28;20098;-71
2023/07/06 02:29:16;;;;;;;6.88;2.28;;;11.10;99.90;;;10.04;100.00;97923.75;5048773;28;20053;-71
2023/07/06 02:31:46;;;;;;;4.10;1.95;;;11.10;99.90;;;10.00;100.00;97914.38;5046313;28;20060;-71
2023/07/06 02:34:14;;;;;;;5.53;1.92;;;11.10;99.90;;;10.10;100.00;97914.88;5046344;28;20051;-71
2023/07/06 02:36:41;;;;;;;5.00;1.63;;;11.20;99.90;;;10.20;100.00;97909.31;5046032;28;20482;-71
2023/07/06 02:39:08;;;;;;;4.53;2.05;;;11.20;99.90;;;10.07;100.00;97910.66;5048045;28;20051;-71
2023/07/06 02:41:38;;;;;;;4.25;2.00;;;11.20;99.90;;;9.88;100.00;97909.63;5042826;28;20045;-70
2023/07/06 02:44:05;;;;;;;4.88;2.10;;;11.10;99.90;;;10.13;100.00;97912.19;5044802;28;20469;-70
2023/07/06 02:46:32;;;;;;;6.05;1.80;;;11.10;99.90;;;10.00;100.00;97915.22;5046975;28;20136;-71
2023/07/06 02:49:00;;;;;;;3.35;1.65;;;11.20;99.90;;;10.02;100.00;97922.94;5043237;28;20056;-71
2023/07/06 02:51:29;;;;;;;5.97;1.80;;;11.10;99.90;;;9.86;100.00;97924.38;5047127;28;20081;-71
2023/07/06 02:53:57;;;;;;;4.35;1.70;;;10.90;99.90;;;9.91;100.00;97928.50;5048412;28;20052;-71
2023/07/06 02:56:26;;;;;;;6.03;1.83;;;10.80;99.90;;;9.93;100.00;97924.09;5047738;28;20119;-71
2023/07/06 02:58:53;;;;;;;5.60;1.98;;;10.80;99.90;;;9.89;100.00;97919.91;5045348;28;20059;-71
2023/07/06 03:01:21;;;;;;;4.07;1.90;;;10.80;99.90;;;9.75;100.00;97928.16;5047634;28;20108;-71
2023/07/06 03:03:51;;;;;;;3.67;1.80;;;10.70;99.90;;;9.68;100.00;97933.63;5040736;28;20052;-71
2023/07/06 03:06:18;;;;;;;6.68;2.42;;;10.70;99.90;;;9.53;100.00;97940.13;5045380;28;20065;-70
2023/07/06 03:08:47;;;;;;;7.80;2.35;;;10.60;99.90;;;9.51;100.00;97934.16;5045615;28;20569;-70
2023/07/06 03:11:17;;;;;;;5.90;2.00;;;10.50;99.90;;;9.48;100.00;97939.44;5048268;28;20056;-70
2023/07/06 03:13:44;;;;;;;3.75;2.17;;;10.30;99.90;;;9.37;100.00;97942.38;5046812;28;20094;-71
2023/07/06 03:16:11;;;;;;;5.05;2.00;;;10.40;99.90;;;9.42;100.00;97945.69;5046049;28;20102;-70
2023/07/06 03:18:43;;;;;;;4.38;1.60;;;10.40;99.90;;;9.45;100.00;97947.31;5046377;28;20045;-70
2023/07/06 03:21:11;;;;;;;7.60;2.35;;;10.50;99.90;;;9.38;100.00;97942.34;5045962;28;20071;-70
2023/07/06 03:23:38;;;;;;;7.75;2.58;;;10.50;99.90;;;9.39;100.00;97940.59;5042305;28;20053;-71
2023/07/06 03:26:06;;;;;;;4.63;2.53;;;10.40;99.90;;;9.35;100.00;97945.03;5047218;28;20131;-71
2023/07/06 03:28:34;;;;;;;3.67;1.60;;;10.30;99.90;;;9.41;100.00;97943.97;5045667;28;20081;-71
2023/07/06 03:31:02;;;;;;;6.32;2.05;;;10.30;99.90;;;9.40;100.00;97939.69;5041958;28;20332;-71
2023/07/06 03:33:31;;;;;;;4.65;2.17;;;10.30;99.90;;;9.51;100.00;97947.97;5043918;28;20072;-70
2023/07/06 03:35:59;;;;;;;4.32;2.00;;;10.30;99.90;;;9.49;100.00;97949.78;5047872;28;20045;-70
2023/07/06 03:38:26;;;;;;;9.73;2.10;;;10.30;99.90;;;9.50;100.00;97958.38;5041483;28;20605;-71
2023/07/06 03:40:54;;;;;;;4.35;1.67;;;10.30;99.90;;;9.46;100.00;97954.19;5046626;28;20094;-71
2023/07/06 03:43:21;;;;;;;3.72;1.70;;;10.20;99.90;;;9.46;100.00;97955.03;5042201;28;20084;-71
2023/07/06 03:45:48;;;;;;;3.25;1.70;;;10.20;99.90;;;9.47;100.00;97951.56;5041388;28;20413;-70
2023/07/06 03:48:16;;;;;;;3.63;2.05;;;10.20;99.90;;;9.32;100.00;97954.63;5046600;28;20049;-71
2023/07/06 03:50:43;;;;;;;7.68;2.17;;;10.20;99.90;;;9.31;100.00;97963.31;5045105;28;20396;-70
2023/07/06 03:53:28;;;;;;;3.55;1.75;;;10.20;99.90;;;9.31;100.00;97961.56;5045852;28;20052;-70
2023/07/06 03:55:55;;;;;;;5.53;2.17;;;10.10;99.90;;;9.16;100.00;97962.88;5045952;28;20455;-71
2023/07/06 03:58:23;;;;;;;4.93;2.00;;;10.10;99.90;;;9.36;100.00;97964.00;5041571;28;20467;-71
2023/07/06 04:00:50;;;;;;;4.43;1.98;;;10.20;99.90;;;9.40;100.00;97965.63;5037962;28;20095;-70
2023/07/06 04:03:18;;;;;;;9.93;2.03;;;10.30;99.90;;;9.40;100.00;97970.78;5045439;28;20475;-70
2023/07/06 04:05:47;;;;;;;5.22;1.95;;;10.30;99.90;;;9.40;100.00;97971.63;5043375;28;20045;-70
2023/07/06 04:08:21;;;;;;;5.18;2.05;;;10.20;99.90;;;9.33;100.00;97972.72;5046331;28;20041;-70
2023/07/06 04:10:51;;;;;;;4.20;2.20;;;10.20;99.90;;;9.46;100.00;97973.16;5043249;28;20429;-71
2023/07/06 04:13:19;;;;;;;6.07;1.67;;;10.30;99.90;;;9.63;100.00;97968.31;5045796;28;20049;-70
2023/07/06 04:15:49;;;;;;;5.88;1.83;;;10.50;99.90;;;9.82;100.00;97970.28;5043021;28;20045;-70
2023/07/06 04:18:16;;;;;;;5.45;2.00;;;10.50;99.90;;;9.83;100.00;97969.41;5044719;28;20497;-70
2023/07/06 04:20:44;;;;;;;3.33;1.67;;;10.50;99.90;;;9.89;100.00;97969.19;5042650;28;20446;-70
2023/07/06 04:23:12;;;;;;;8.68;2.25;;;10.60;99.90;;;9.84;100.00;97969.34;5043797;28;20056;-70
2023/07/06 04:25:39;;;;;;;4.97;1.83;;;10.60;99.90;;;10.03;100.00;97967.00;5044641;28;20057;-70
2023/07/06 04:28:12;;;;;;;5.13;2.25;;;10.60;99.90;;;10.12;100.00;97967.56;5042240;28;20073;-71
2023/07/06 04:30:46;;;;;;;5.70;2.97;;;10.70;99.90;;;10.24;100.00;97955.00;5044643;28;20614;-71
2023/07/06 04:33:16;;;;;;;4.13;1.67;;;10.80;99.90;;;10.26;100.00;97958.41;5042774;28;20099;-70
2023/07/06 04:35:50;;;;;;;4.93;2.15;;;10.90;99.90;;;10.30;100.00;97953.97;5045100;28;20061;-71
2023/07/06 04:38:19;;;;;;;4.88;1.77;;;11.00;99.90;;;10.34;100.00;97955.56;5044043;28;20045;-73
2023/07/06 04:40:46;;;;;;;6.05;2.08;;;11.20;99.90;;;10.41;100.00;97951.00;5045609;28;20139;-71
2023/07/06 04:43:13;;;;;;;3.35;1.65;;;11.20;99.90;;;10.29;100.00;97944.50;5037817;28;20128;-71
2023/07/06 04:45:40;;;;;;;5.63;2.15;;;11.20;99.90;;;10.37;100.00;97941.63;5045892;28;20056;-71
2023/07/06 04:48:07;;;;;;;6.40;1.90;;;11.30;99.90;;;10.59;100.00;97950.31;5045230;28;20120;-71
2023/07/06 04:50:37;;;;;;;7.05;1.80;;;11.30;99.90;;;10.95;100.00;97951.59;5029060;28;20056;-70
2023/07/06 04:53:07;;;;;;;6.25;2.13;;;11.50;99.90;;;11.14;100.00;97943.97;5043495;28;20055;-71
2023/07/06 04:55:36;;;;;;;7.68;1.63;;;11.70;99.90;;;11.01;100.00;97940.97;5044229;28;20057;-70
2023/07/06 04:58:05;;;;;;;4.47;2.05;;;11.80;99.90;;;11.22;100.00;97932.38;5039621;28;20118;-72
2023/07/06 05:00:39;;;;;;;4.18;1.35;;;11.90;99.90;;;11.15;100.00;97933.50;5039850;28;20049;-71
2023/07/06 05:03:08;;;;;;;5.53;1.65;;;12.00;99.90;;;10.88;100.00;97927.63;5045750;28;20071;-70
2023/07/06 05:05:45;;;;;;;5.47;1.83;;;12.00;99.90;;;11.21;100.00;97938.44;5041581;28;20083;-71
2023/07/06 05:08:16;;;;;;;4.68;2.15;;;12.00;99.90;;;11.39;100.00;97938.63;5027165;28;20049;-71
2023/07/06 05:10:47;;;;;;;5.13;1.88;;;12.00;99.90;;;11.41;100.00;97942.03;5043800;28;20057;-71
2023/07/06 05:13:15;;;;;;;5.68;1.88;;;12.10;99.90;;;11.72;100.00;97934.66;5044023;28;20037;-71
2023/07/06 05:15:43;;;;;;;4.05;1.70;;;12.30;99.90;;;11.40;100.00;97937.72;5039814;28;20516;-71
2023/07/06 05:18:10;;;;;;;5.85;1.63;;;12.30;99.90;;;11.62;100.00;97938.53;5042097;28;20053;-70
2023/07/06 05:20:37;;;;;;;4.72;1.80;;;12.40;99.90;;;11.76;100.00;97937.13;5046617;28;20470;-70
2023/07/06 05:23:07;;;;;;;6.00;1.70;;;12.40;99.90;;;12.01;100.00;97943.03;5045290;28;20339;-70
2023/07/06 05:25:36;;;;;;;5.00;1.60;;;12.50;99.90;;;12.17;100.00;97944.97;5037466;28;20049;-71
2023/07/06 05:28:03;;;;;;;3.70;1.73;;;12.70;99.90;;;12.52;100.00;97956.44;5046023;28;20059;-71
2023/07/06 05:30:30;;;;;;;6.25;1.90;;;12.90;99.90;;;12.68;100.00;97946.19;5043391;28;20497;-70
2023/07/06 05:32:57;;;;;;;4.15;1.67;;;13.00;99.90;;;12.83;100.00;97942.88;5038771;28;20052;-71
2023/07/06 05:35:27;;;;;;;3.40;1.45;;;13.20;99.90;;;13.03;100.00;97938.53;5041557;28;20068;-71
2023/07/06 05:37:55;;;;;;;3.65;1.65;;;13.40;99.90;;;13.51;100.00;97914.50;5044923;28;20048;-71
2023/07/06 05:40:26;;;;;;;5.20;1.45;;;13.60;99.90;;;13.58;100.00;97915.88;5044217;28;20048;-70
2023/07/06 05:42:57;;;;;;;3.58;1.75;;;13.90;99.90;;;13.70;100.00;97909.22;5044379;28;20186;-71
2023/07/06 05:45:25;;;;;;;5.47;1.95;;;14.00;99.90;;;13.97;100.00;97911.34;5042518;28;20060;-71
2023/07/06 05:47:52;;;;;;;8.02;2.30;;;14.10;99.90;;;14.02;100.00;97901.53;5042530;28;20151;-71
2023/07/06 05:50:20;;;;;;;4.30;1.48;;;14.20;99.90;;;14.27;100.00;97895.03;5045623;28;20448;-71
2023/07/06 05:52:47;;;;;;;4.20;1.75;;;14.40;99.90;;;14.62;100.00;97885.38;5043167;28;20057;-71
2023/07/06 05:55:15;;;;;;;3.90;1.70;;;14.60;99.90;;;14.85;100.00;97877.09;5042579;28;20099;-71
2023/07/06 05:57:43;;;;;;;4.53;1.63;;;14.80;99.90;;;15.17;100.00;97868.41;5042506;28;20099;-71
2023/07/06 06:00:11;;;;;;;6.22;1.88;;;14.90;99.90;;;15.23;100.00;97863.63;5045568;28;20052;-71
2023/07/06 06:02:39;;;;;;;4.55;1.60;;;15.20;99.90;;;15.48;100.00;97875.31;5027511;28;20053;-71
2023/07/06 06:05:07;;;;;;;3.65;1.15;;;15.50;99.90;;;15.75;100.00;97864.22;5057326;28;20052;-71
2023/07/06 06:07:35;;;;;;;4.50;1.60;;;15.80;99.90;;;15.91;100.00;97858.91;5042974;28;20451;-71
2023/07/06 06:10:04;;;;;;;7.40;1.92;;;16.10;99.90;;;16.03;100.00;97861.66;5041077;28;20465;-71
2023/07/06 06:12:35;;;;;;;5.47;1.50;;;16.30;99.90;;;16.14;100.00;97860.97;5041560;28;20049;-71
2023/07/06 06:15:03;;;;;;;5.75;1.60;;;16.50;99.90;;;16.37;100.00;97853.50;5043313;28;20045;-70
2023/07/06 06:17:30;;;;;;;5.78;1.70;;;16.60;99.90;;;16.33;100.00;97850.25;5043698;28;20055;-71
2023/07/06 06:19:57;;;;;;;4.10;1.48;;;16.80;99.90;;;16.64;100.00;97849.16;5041671;28;20407;-71
2023/07/06 06:22:25;;;;;;;4.75;1.40;;;17.00;99.90;;;16.92;100.00;97850.94;5042970;28;20133;-71
2023/07/06 06:24:52;;;;;;;6.07;1.90;;;17.10;99.90;;;16.95;100.00;97852.50;5044932;28;20383;-71
2023/07/06 06:27:19;;;;;;;5.15;1.52;;;17.20;99.90;;;17.13;100.00;97860.97;5035607;28;20526;-71
2023/07/06 06:29:47;;;;;;;4.43;1.58;;;17.40;99.90;;;17.09;100.00;97852.44;5036808;28;20049;-71
2023/07/06 06:32:14;;;;;;;3.17;1.25;;;17.50;99.90;;;17.30;100.00;97857.25;5045406;28;20049;-71
2023/07/06 06:34:42;;;;;;;6.43;1.80;;;17.60;99.90;;;17.42;100.00;97858.22;5042772;28;20049;-71
2023/07/06 06:37:09;;;;;;;5.97;1.98;;;17.70;99.90;;;17.83;100.00;97863.34;5040424;28;20041;-71
2023/07/06 06:39:38;;;;;;;6.70;1.67;;;17.90;99.90;;;17.66;100.00;97859.22;5042957;28;20413;-71
2023/07/06 06:42:07;;;;;;;5.53;1.30;;;18.00;99.90;;;17.50;100.00;97858.56;5037011;28;20053;-71
2023/07/06 06:44:35;;;;;;;8.90;1.90;;;18.00;99.90;;;17.50;100.00;97867.25;5038850;28;20115;-71
2023/07/06 06:47:04;;;;;;;5.15;1.83;;;18.10;99.90;;;17.67;100.00;97863.50;5044508;28;20102;-71
2023/07/06 06:49:33;;;;;;;7.03;1.58;;;18.10;99.90;;;17.64;100.00;97871.59;5045808;28;20132;-71
2023/07/06 06:52:01;;;;;;;5.15;1.67;;;18.20;99.90;;;17.68;100.00;97872.25;5047563;28;20049;-72
2023/07/06 06:54:33;;;;;;;5.07;1.58;;;18.30;99.90;;;17.66;100.00;97869.72;5045419;28;20528;-71
2023/07/06 06:57:01;;;;;;;4.57;1.38;;;18.20;99.90;;;17.32;100.00;97869.31;5047032;28;20045;-72
2023/07/06 06:59:29;;;;;;;4.85;1.40;;;18.10;99.90;;;17.70;100.00;97865.13;5038910;28;20481;-71
2023/07/06 07:02:00;;;;;;;5.22;1.58;;;18.20;99.90;;;18.06;100.00;97868.81;5047314;28;20049;-72
2023/07/06 07:04:29;;;;;;;4.90;1.65;;;18.40;99.90;;;17.94;100.00;97868.72;5045665;28;20088;-72
2023/07/06 07:06:57;;;;;;;7.13;1.70;;;18.30;99.90;;;18.17;100.00;97861.06;5043620;28;20041;-71
2023/07/06 07:09:24;;;;;;;5.18;1.40;;;18.40;99.90;;;18.04;100.00;97862.84;5046734;28;20513;-71
2023/07/06 07:11:51;;;;;;;6.57;2.15;;;18.60;99.90;;;18.01;100.00;97860.44;5047232;28;20081;-72
2023/07/06 07:14:18;;;;;;;6.72;1.80;;;18.70;99.90;;;18.29;100.00;97859.34;5045117;28;20575;-71
2023/07/06 07:16:46;;;;;;;10.93;1.98;;;18.70;99.90;;;18.42;100.00;97857.56;5042950;28;20103;-71
2023/07/06 07:19:14;;;;;;;4.85;1.70;;;18.80;99.90;;;18.79;100.00;97860.25;5046961;28;20570;-71
2023/07/06 07:21:41;;;;;;;4.30;1.40;;;18.90;99.90;;;18.74;100.00;97860.53;5044513;28;20102;-71
2023/07/06 07:24:08;;;;;;;6.70;1.50;;;19.10;99.90;;;19.09;100.00;97864.25;5046387;28;20562;-71
2023/07/06 07:26:38;;;;;;;4.82;1.67;;;19.30;99.90;;;19.28;100.00;97864.59;5045922;28;20169;-71
2023/07/06 07:29:06;;;;;;;10.55;2.15;;;19.50;99.90;;;18.71;100.00;97863.41;5044712;28;20053;-71
2023/07/06 07:31:33;;;;;;;5.82;2.20;;;19.50;99.90;;;18.64;100.00;97866.59;5045384;28;20110;-71
2023/07/06 07:34:00;;;;;;;5.55;1.60;;;19.50;99.90;;;18.76;100.00;97863.06;5042126;28;20053;-71
2023/07/06 07:36:29;;;;;;;5.30;1.60;;;19.50;99.90;;;19.07;100.00;97867.00;5045622;28;20449;-71
2023/07/06 07:38:56;;;;;;;6.03;1.90;;;19.50;99.90;;;19.19;100.00;97858.22;5047602;28;20076;-72
2023/07/06 07:41:25;;;;;;;5.72;1.85;;;19.60;99.90;;;19.29;100.00;97862.78;5045301;28;20044;-73
2023/07/06 07:43:52;;;;;;;7.53;1.80;;;19.70;99.90;;;20.11;100.00;97865.47;5044809;28;20052;-72
2023/07/06 07:46:20;;;;;;;4.30;1.75;;;19.90;99.90;;;19.52;100.00;97864.56;5047009;28;20056;-72
2023/07/06 07:48:49;;;;;;;6.57;1.70;;;20.10;99.90;;;19.31;100.00;97868.78;5044865;28;20140;-73
2023/07/06 07:51:21;;;;;;;6.97;2.00;;;20.10;99.90;;;19.42;100.00;97860.94;5047352;28;20048;-71
2023/07/06 07:53:50;;;;;;;5.97;1.92;;;20.00;99.90;;;19.27;100.00;97864.69;5041668;28;20048;-71
2023/07/06 07:56:17;;;;;;;8.00;2.72;;;20.00;99.90;;;19.40;100.00;97858.41;5045281;28;20049;-71
2023/07/06 07:58:47;;;;;;;3.70;1.58;;;20.10;99.90;;;19.63;100.00;97856.69;5045764;28;20507;-71
2023/07/06 08:01:22;;;;;;;6.78;1.88;;;20.10;99.90;;;19.56;100.00;97852.00;5043574;28;20059;-71
2023/07/06 08:03:52;;;;;;;7.00;1.77;;;20.20;99.90;;;19.92;100.00;97851.06;5043831;28;20436;-72
2023/07/06 08:06:22;;;;;;;6.20;1.90;;;20.40;99.90;;;19.44;100.00;97854.59;5046909;28;20517;-71
2023/07/06 08:08:50;;;;;;;6.68;1.67;;;20.50;99.90;;;19.74;100.00;97847.19;5026616;28;20506;-71
2023/07/06 08:11:23;;;;;;;3.40;1.45;;;20.40;99.90;;;19.55;100.00;97848.53;5040500;28;20056;-72
2023/07/06 08:13:53;;;;;;;3.83;1.10;;;20.30;99.90;;;19.62;100.00;97855.03;5046825;28;20056;-71
2023/07/06 08:16:22;;;;;;;4.72;1.50;;;20.20;99.90;;;19.20;100.00;97859.91;5046346;28;20063;-72
2023/07/06 08:18:51;;;;;;;3.53;1.70;;;20.10;99.90;;;19.44;100.00;97861.66;5042668;28;20110;-72
2023/07/06 08:21:31;;;;;;;5.78;1.40;;;20.00;99.90;;;19.62;100.00;97864.72;5044368;28;20432;-71
2023/07/06 08:24:18;;;;;;;5.20;1.30;;;19.90;99.90;;;20.42;100.00;97859.47;5040889;28;20048;-71
2023/07/06 08:26:45;;;;;;;6.75;1.90;;;20.50;99.90;;;20.22;100.00;97855.75;5046628;28;20045;-72
2023/07/06 08:29:12;;;;;;;5.60;1.42;;;20.60;99.90;;;19.95;100.00;97860.53;5045916;28;20469;-72
2023/07/06 08:31:40;;;;;;;5.75;1.15;;;20.50;99.90;;;19.95;100.00;97865.78;5040665;28;20115;-72
2023/07/06 08:34:07;;;;;;;4.72;1.20;;;20.60;99.90;;;20.96;100.00;97865.81;5037459;28;20073;-72
2023/07/06 08:36:34;;;;;;;3.95;1.40;;;20.90;99.90;;;21.16;100.00;97866.00;5043072;28;20492;-72
2023/07/06 08:39:02;;;;;;;3.92;1.20;;;21.20;99.90;;;20.92;100.00;97859.09;5042731;28;20139;-72
2023/07/06 08:41:39;;;;;;;4.75;1.10;;;21.20;99.90;;;20.15;100.00;97865.09;5045293;28;20120;-72
2023/07/06 08:44:13;;;;;;;4.30;1.50;;;21.00;99.90;;;20.06;100.00;97860.53;5046506;28;20506;-72
2023/07/06 08:46:54;;;;;;;4.05;1.10;;;20.60;99.90;;;20.23;100.00;97861.84;5059438;28;20489;-72
2023/07/06 08:49:29;;;;;;;4.93;1.20;;;20.60;99.90;;;19.81;100.00;97856.31;5024263;28;20102;-71
2023/07/06 08:52:05;;;;;;;3.75;1.40;;;20.60;99.90;;;20.71;100.00;97866.09;5040525;28;20055;-72
2023/07/06 08:54:39;;;;;;;7.30;1.50;;;20.40;99.90;;;20.53;100.00;97863.91;5045479;28;20136;-72
2023/07/06 08:57:15;;;;;;;3.92;1.30;;;20.60;99.90;;;20.12;100.00;97864.50;5060068;28;20052;-72
2023/07/06 08:59:46;;;;;;;3.90;1.38;;;20.20;99.90;;;19.82;100.00;97868.53;5027064;28;20103;-72
2023/07/06 09:02:18;;;;;;;6.55;1.25;;;20.10;99.90;;;19.67;100.00;97870.47;5037221;28;20045;-72
2023/07/06 09:04:48;;;;;;;5.03;1.50;;;20.10;99.90;;;19.93;100.00;97862.44;5042770;28;20076;-72
2023/07/06 09:07:18;;;;;;;4.95;1.48;;;20.20;99.90;;;21.18;100.00;97856.97;5040047;28;20059;-72
2023/07/06 09:09:48;;;;;;;5.90;1.33;;;20.60;99.90;;;22.11;100.00;97850.19;5024851;28;20495;-72
2023/07/06 09:12:24;;;;;;;5.55;1.65;;;21.50;99.90;;;22.72;100.00;97844.06;5043304;28;20136;-71
2023/07/06 09:14:53;;;;;;;3.70;1.75;;;22.50;99.40;;;23.20;100.00;97843.34;5044230;28;20532;-72
2023/07/06 09:17:21;;;;;;;2.13;0.98;;;23.10;97.60;;;23.83;100.00;97842.06;5042410;28;20048;-72
2023/07/06 09:19:51;;;;;;;2.20;1.05;;;23.80;97.90;;;23.38;100.00;97844.31;5042616;28;20585;-72
2023/07/06 09:22:22;;;;;;;4.75;1.48;;;23.90;96.20;;;22.47;100.00;97851.50;5042950;28;20056;-71
2023/07/06 09:24:52;;;;;;;3.05;1.00;;;23.70;96.00;;;20.78;100.00;97862.03;5044483;28;20055;-72
2023/07/06 09:27:26;;;;;;;2.45;1.27;;;22.30;95.60;;;21.43;100.00;97855.84;5044417;28;20040;-72
2023/07/06 09:30:20;;;;;;;4.05;1.42;;;21.40;96.30;;;22.64;100.00;97851.81;5039770;28;21404;-72
2023/07/06 09:32:53;;;;;;;5.40;1.80;;;22.10;96.90;;;23.39;100.00;97838.03;5045435;28;20111;-72
2023/07/06 09:35:21;;;;;;;4.03;1.52;;;23.20;95.20;;;23.36;100.00;97838.31;5041901;28;20132;-72
2023/07/06 09:37:51;;;;;;;3.53;1.30;;;23.90;92.90;;;23.14;100.00;97842.06;5027704;28;21007;-73
2023/07/06 09:40:29;;;;;;;2.97;1.10;;;23.50;92.90;;;22.23;100.00;97840.38;5034443;28;20128;-72
2023/07/06 09:42:59;;;;;;;3.15;1.15;;;23.20;92.60;;;21.12;100.00;97843.44;5044473;28;20041;-72
2023/07/06 09:45:30;;;;;;;5.07;1.50;;;22.20;93.80;;;21.92;100.00;97845.63;5043450;28;20118;-72
2023/07/06 09:48:37;;;;;;;4.40;1.17;;;22.10;94.40;;;23.34;100.00;97844.75;5042440;28;20078;-72
2023/07/06 09:51:14;;;;;;;4.25;1.38;;;23.00;93.40;;;24.02;100.00;97826.13;5059222;28;20053;-72
2023/07/06 09:53:53;;;;;;;3.58;1.30;;;23.50;93.40;;;23.83;100.00;97828.81;5039335;28;20133;-72
2023/07/06 09:56:22;;;;;;;3.95;1.48;;;23.80;92.10;;;24.55;100.00;97828.19;5042874;28;20048;-72
2023/07/06 09:58:51;;;;;;;3.42;1.20;;;24.90;93.00;;;25.12;100.00;97829.81;5042747;28;20056;-72
2023/07/06 10:01:53;;;;;;;3.05;1.45;;;25.00;90.30;;;24.50;98.88;97824.31;5041595;28;20556;-72
2023/07/06 10:04:58;;;;;;;3.75;1.30;;;25.30;90.10;;;25.37;93.85;97828.25;5018693;28;20551;-72
2023/07/06 10:07:52;;;;;;;5.15;1.23;;;24.80;90.00;;;26.01;93.73;97832.41;5036738;28;20061;-72
2023/07/06 10:11:09;;;;;;;3.50;1.10;;;24.90;88.90;;;25.12;95.08;97843.09;5040665;28;20040;-72
2023/07/06 10:13:40;;;;;;;3.00;1.00;;;25.50;89.80;;;25.33;100.00;97841.00;5040719;28;20254;-71
2023/07/06 10:16:44;;;;;;;7.28;1.25;;;25.80;90.30;;;24.55;100.00;97830.84;5042387;28;20042;-72
2023/07/06 10:19:43;;;;;;;4.10;1.15;;;25.70;89.80;;;22.53;100.00;97835.09;5042461;28;20041;-71
2023/07/06 10:22:54;;;;;;;3.10;1.30;;;24.40;91.30;;;22.43;100.00;97851.91;5043322;28;20502;-71
2023/07/06 10:25:46;;;;;;;3.60;1.30;;;23.60;91.70;;;22.48;100.00;97847.03;5048502;28;20059;-71
2023/07/06 10:28:23;;;;;;;4.82;1.60;;;23.10;92.60;;;22.58;100.00;97847.06;5044461;28;20045;-72
2023/07/06 10:30:54;;;;;;;4.47;1.25;;;23.10;92.50;;;22.66;100.00;97848.06;5042573;28;20142;-72
2023/07/06 10:33:43;;;;;;;3.72;1.65;;;23.30;92.70;;;22.62;100.00;97848.47;5040289;28;20053;-71